createdAt,value
2018-03-25T03:01:30.621Z,25.70
2018-03-25T03:03:58.949Z,27.10
2018-03-25T03:06:27.353Z,27.83
2018-03-25T03:08:55.692Z,30.93
2018-03-25T03:11:24.099Z,34.57
2018-03-25T03:13:53.181Z,33.03
2018-03-25T03:16:22.287Z,30.13
2018-03-25T03:18:51.367Z,29.07
2018-03-25T03:21:19.720Z,29.33
2018-03-25T03:23:48.035Z,28.13
2018-03-25T03:26:17.122Z,30.40
2018-03-25T03:28:46.234Z,28.60
2018-03-25T03:31:15.321Z,34.17
2018-03-25T03:33:44.428Z,26.80
2018-03-25T03:36:13.519Z,29.60
2018-03-25T03:38:42.631Z,30.27
2018-03-25T03:41:11.060Z,26.10
2018-03-25T03:43:39.408Z,25.23
2018-03-25T03:46:07.738Z,26.73
2018-03-25T03:48:36.067Z,27.80
2018-03-25T03:51:04.400Z,23.63
2018-03-25T03:53:33.536Z,33.70
2018-03-25T03:56:01.860Z,25.10
2018-03-25T03:58:30.203Z,25.23
2018-03-25T04:00:58.516Z,31.63
2018-03-25T04:03:26.895Z,27.13
2018-03-25T04:05:55.269Z,27.27
2018-03-25T04:08:23.603Z,25.17
2018-03-25T04:10:51.919Z,26.80
2018-03-25T04:13:20.260Z,23.37
2018-03-25T04:15:49.371Z,29.07
2018-03-25T04:18:18.483Z,27.10
2018-03-25T04:20:46.816Z,27.00
2018-03-25T04:23:15.157Z,26.27
2018-03-25T04:25:43.466Z,25.37
2018-03-25T04:28:11.810Z,25.50
2018-03-25T04:30:40.234Z,28.90
2018-03-25T04:33:08.570Z,27.47
2018-03-25T04:35:36.887Z,27.10
2018-03-25T04:38:05.254Z,25.20
2018-03-25T04:40:33.564Z,28.87
2018-03-25T04:43:01.884Z,22.13
2018-03-25T04:45:30.230Z,28.23
2018-03-25T04:47:58.552Z,27.30
2018-03-25T04:50:27.664Z,31.73
2018-03-25T04:52:56.010Z,24.23
2018-03-25T04:55:25.123Z,29.70
2018-03-25T04:57:54.206Z,25.90
2018-03-25T05:00:23.324Z,25.77
2018-03-25T05:02:51.652Z,27.87
2018-03-25T05:05:19.995Z,24.50
2018-03-25T05:07:48.304Z,24.33
2018-03-25T05:10:16.659Z,28.97
2018-03-25T05:12:44.980Z,31.20
2018-03-25T05:15:13.315Z,27.17
2018-03-25T05:17:41.631Z,29.23
2018-03-25T05:20:10.208Z,25.43
2018-03-25T05:22:38.527Z,29.63
2018-03-25T05:25:06.875Z,28.60
2018-03-25T05:27:35.199Z,34.60
2018-03-25T05:30:03.556Z,27.40
2018-03-25T05:32:32.628Z,29.50
2018-03-25T05:35:00.952Z,27.53
2018-03-25T05:37:29.303Z,29.87
2018-03-25T05:39:58.386Z,37.27
2018-03-25T05:42:26.727Z,26.27
2018-03-25T05:44:55.052Z,26.20
2018-03-25T05:47:23.390Z,30.60
2018-03-25T05:49:51.717Z,29.27
2018-03-25T05:52:20.828Z,29.30
2018-03-25T05:54:49.140Z,26.23
2018-03-25T05:57:17.474Z,25.10
2018-03-25T05:59:45.796Z,25.40
2018-03-25T06:02:14.131Z,28.27
2018-03-25T06:04:42.458Z,36.20
2018-03-25T06:07:10.819Z,29.20
2018-03-25T06:09:39.140Z,28.90
2018-03-25T06:12:07.480Z,30.50
2018-03-25T06:14:35.794Z,33.10
2018-03-25T06:17:04.153Z,34.33
2018-03-25T06:19:32.470Z,33.87
2018-03-25T06:22:01.552Z,30.20
2018-03-25T06:24:30.659Z,40.77
2018-03-25T06:26:59.739Z,35.83
2018-03-25T06:29:28.097Z,45.23
2018-03-25T06:31:56.414Z,33.37
2018-03-25T06:34:24.758Z,31.90
2018-03-25T06:36:53.080Z,33.20
2018-03-25T06:39:21.427Z,35.97
2018-03-25T06:41:49.734Z,39.53
2018-03-25T06:44:18.080Z,34.57
2018-03-25T06:46:46.397Z,36.10
2018-03-25T06:49:14.727Z,34.83
2018-03-25T06:51:43.036Z,33.27
2018-03-25T06:54:11.419Z,38.50
2018-03-25T06:56:39.703Z,33.73
2018-03-25T06:59:08.048Z,32.20
2018-03-25T07:01:36.360Z,33.27
2018-03-25T07:04:04.692Z,31.90
2018-03-25T07:06:33.000Z,33.50
2018-03-25T07:09:02.108Z,35.27
2018-03-25T07:11:30.426Z,31.63
2018-03-25T07:13:59.531Z,36.67
2018-03-25T07:16:27.852Z,37.73
2018-03-25T07:18:56.956Z,34.07
2018-03-25T07:21:26.058Z,37.90
2018-03-25T07:23:54.407Z,36.37
2018-03-25T07:26:22.719Z,37.07
2018-03-25T07:28:51.024Z,34.30
2018-03-25T07:31:20.135Z,40.00
2018-03-25T07:33:48.451Z,39.13
2018-03-25T07:36:17.550Z,40.10
2018-03-25T07:38:45.868Z,39.23
2018-03-25T07:41:14.208Z,37.03
2018-03-25T07:43:42.521Z,37.23
2018-03-25T07:46:10.861Z,32.00
2018-03-25T07:48:39.932Z,43.83
2018-03-25T07:51:08.262Z,38.30
2018-03-25T07:53:36.570Z,42.90
2018-03-25T07:56:04.903Z,42.63
2018-03-25T07:58:33.215Z,50.10
2018-03-25T08:01:01.560Z,48.50
2018-03-25T08:03:29.896Z,40.30
2018-03-25T08:05:58.233Z,42.10
2018-03-25T08:08:26.571Z,38.37
2018-03-25T08:10:55.751Z,41.80
2018-03-25T08:13:24.071Z,42.23
2018-03-25T08:15:52.399Z,42.03
2018-03-25T08:18:20.717Z,42.47
2018-03-25T08:20:49.803Z,33.57
2018-03-25T08:23:18.139Z,36.90
2018-03-25T08:25:46.476Z,37.70
2018-03-25T08:28:14.785Z,43.77
2018-03-25T08:30:43.884Z,39.57
2018-03-25T08:33:12.195Z,41.37
2018-03-25T08:35:40.528Z,40.73
2018-03-25T08:38:08.907Z,41.60
2018-03-25T08:40:37.248Z,40.20
2018-03-25T08:43:06.316Z,37.43
2018-03-25T08:45:34.657Z,45.37
2018-03-25T08:48:02.991Z,40.40
2018-03-25T08:50:32.097Z,40.40
2018-03-25T08:53:01.172Z,40.87
2018-03-25T08:55:29.514Z,45.73
2018-03-25T08:57:57.849Z,44.63
2018-03-25T09:00:26.274Z,40.90
2018-03-25T09:02:54.587Z,42.50
2018-03-25T09:05:23.015Z,41.93
2018-03-25T09:07:51.323Z,43.07
2018-03-25T09:10:19.641Z,42.27
2018-03-25T09:12:48.740Z,41.67
2018-03-25T09:15:17.068Z,46.60
2018-03-25T09:17:45.400Z,44.70
2018-03-25T09:20:13.714Z,43.33
2018-03-25T09:22:42.045Z,39.43
2018-03-25T09:25:11.115Z,53.13
2018-03-25T09:27:39.484Z,48.33
2018-03-25T09:30:08.792Z,46.07
2018-03-25T09:32:37.121Z,43.20
2018-03-25T09:35:05.439Z,39.53
2018-03-25T09:37:33.822Z,39.07
2018-03-25T09:40:02.115Z,47.27
2018-03-25T09:42:31.220Z,44.33
2018-03-25T09:44:59.545Z,46.20
2018-03-25T09:47:27.886Z,49.83
2018-03-25T09:49:56.997Z,45.90
2018-03-25T09:52:25.338Z,41.90
2018-03-25T09:54:54.439Z,42.33
2018-03-25T09:57:23.555Z,45.00
2018-03-25T09:59:51.872Z,45.40
2018-03-25T10:02:25.837Z,41.23
2018-03-25T10:04:54.921Z,47.57
2018-03-25T10:07:24.007Z,43.70
2018-03-25T10:09:52.312Z,42.97
2018-03-25T10:12:20.649Z,42.63
2018-03-25T10:14:48.984Z,45.50
2018-03-25T10:17:17.296Z,45.07
2018-03-25T10:19:45.633Z,48.33
2018-03-25T10:22:13.984Z,40.17
2018-03-25T10:24:43.073Z,42.73
2018-03-25T10:27:12.295Z,47.93
2018-03-25T10:29:40.660Z,44.23
2018-03-25T10:32:09.755Z,41.37
2018-03-25T10:34:38.844Z,46.90
2018-03-25T10:37:07.948Z,40.80
2018-03-25T10:39:37.033Z,40.10
2018-03-25T10:42:05.381Z,49.67
2018-03-25T10:44:33.700Z,48.20
2018-03-25T10:47:02.804Z,45.23
2018-03-25T10:49:31.180Z,42.77
2018-03-25T10:51:59.495Z,43.80
2018-03-25T10:54:27.808Z,42.50
2018-03-25T10:56:56.153Z,44.67
2018-03-25T10:59:24.475Z,40.50
2018-03-25T11:01:53.586Z,36.67
2018-03-25T11:04:22.666Z,45.67
2018-03-25T11:06:51.842Z,47.07
2018-03-25T11:09:20.127Z,43.07
2018-03-25T11:11:48.462Z,42.97
2018-03-25T11:14:16.776Z,39.10
2018-03-25T11:16:45.115Z,38.27
2018-03-25T11:19:13.436Z,40.27
2018-03-25T11:21:41.791Z,40.73
2018-03-25T11:24:10.115Z,35.20
2018-03-25T11:26:39.219Z,37.10
2018-03-25T11:29:08.304Z,38.37
2018-03-25T11:31:37.454Z,41.17
2018-03-25T11:34:05.771Z,37.97
2018-03-25T11:36:34.151Z,38.30
2018-03-25T11:39:03.237Z,42.10
2018-03-25T11:41:31.621Z,41.23
2018-03-25T11:43:59.941Z,41.47
2018-03-25T11:46:28.290Z,38.93
2018-03-25T11:48:57.380Z,36.93
2018-03-25T11:51:25.732Z,43.30
2018-03-25T11:53:54.046Z,38.03
2018-03-25T11:56:23.128Z,38.60
2018-03-25T11:58:51.471Z,36.50
2018-03-25T12:01:19.777Z,40.30
2018-03-25T12:03:48.909Z,42.57
2018-03-25T12:06:17.266Z,37.70
2018-03-25T12:08:46.347Z,37.43
2018-03-25T12:11:14.719Z,37.70
2018-03-25T12:13:43.040Z,36.40
2018-03-25T12:16:11.384Z,36.47
2018-03-25T12:18:40.484Z,37.90
2018-03-25T12:21:08.819Z,34.80
2018-03-25T12:23:37.188Z,37.27
2018-03-25T12:26:05.553Z,39.13
2018-03-25T12:28:33.883Z,35.87
2018-03-25T12:31:02.233Z,34.53
2018-03-25T12:33:30.558Z,38.33
2018-03-25T12:35:59.668Z,39.00
2018-03-25T12:38:28.745Z,38.50
2018-03-25T12:40:57.106Z,36.73
2018-03-25T12:43:25.423Z,36.27
2018-03-25T12:45:54.526Z,36.97
2018-03-25T12:48:22.843Z,34.27
2018-03-25T12:50:51.198Z,36.67
2018-03-25T12:53:19.513Z,38.33
2018-03-25T12:55:47.904Z,38.07
2018-03-25T12:58:16.215Z,39.33
2018-03-25T13:00:45.499Z,32.93
2018-03-25T13:03:14.584Z,35.40
2018-03-25T13:05:42.895Z,38.77
2018-03-25T13:08:11.244Z,35.23
2018-03-25T13:10:40.331Z,33.40
2018-03-25T13:13:08.668Z,36.17
2018-03-25T13:15:36.982Z,38.07
2018-03-25T13:18:05.324Z,38.63
2018-03-25T13:20:33.649Z,35.53
2018-03-25T13:23:01.994Z,36.90
2018-03-25T13:25:30.311Z,36.27
2018-03-25T13:27:59.423Z,36.10
2018-03-25T13:30:28.496Z,38.20
2018-03-25T13:32:56.910Z,37.83
2018-03-25T13:35:25.252Z,31.47
2018-03-25T13:37:53.599Z,36.23
2018-03-25T13:40:21.911Z,37.90
2018-03-25T13:42:51.020Z,36.83
2018-03-25T13:45:20.899Z,38.77
2018-03-25T13:47:49.237Z,37.00
2018-03-25T13:50:17.569Z,37.20
2018-03-25T13:52:45.908Z,40.30
2018-03-25T13:55:14.228Z,35.83
2018-03-25T13:57:42.583Z,34.80
2018-03-25T14:00:11.015Z,43.50
2018-03-25T14:02:39.387Z,37.33
2018-03-25T14:05:07.859Z,36.70
2018-03-25T14:07:36.956Z,36.83
2018-03-25T14:10:06.059Z,35.87
2018-03-25T14:12:35.144Z,35.93
2018-03-25T14:15:04.251Z,31.87
2018-03-25T14:17:33.335Z,33.63
2018-03-25T14:20:02.457Z,32.60
2018-03-25T14:22:30.772Z,34.03
2018-03-25T14:24:59.116Z,30.00
2018-03-25T14:27:27.455Z,31.30
2018-03-25T14:29:55.863Z,32.60
2018-03-25T14:32:24.135Z,38.13
2018-03-25T14:34:53.235Z,36.07
2018-03-25T14:37:21.554Z,32.63
2018-03-25T14:39:50.662Z,30.20
2018-03-25T14:42:19.002Z,31.00
2018-03-25T14:44:47.336Z,34.63
2018-03-25T14:47:15.663Z,33.03
2018-03-25T14:49:44.025Z,34.73
2018-03-25T14:52:12.364Z,29.47
2018-03-25T14:54:40.680Z,34.30
2018-03-25T14:57:09.032Z,32.93
2018-03-25T14:59:37.348Z,31.70
2018-03-25T15:02:05.687Z,32.67
2018-03-25T15:04:34.007Z,40.40
2018-03-25T15:07:02.347Z,34.00
2018-03-25T15:09:31.439Z,30.67
2018-03-25T15:11:59.775Z,30.50
2018-03-25T15:14:28.088Z,35.30
2018-03-25T15:16:56.421Z,37.50
2018-03-25T15:19:24.738Z,33.47
2018-03-25T15:21:53.083Z,33.00
2018-03-25T15:24:21.392Z,33.57
2018-03-25T15:26:49.735Z,33.27
2018-03-25T15:29:18.052Z,31.60
2018-03-25T15:31:46.407Z,34.77
2018-03-25T15:34:15.492Z,32.17
2018-03-25T15:36:43.799Z,31.80
2018-03-25T15:39:12.215Z,36.53
2018-03-25T15:41:40.537Z,32.90
2018-03-25T15:44:08.866Z,32.30
2018-03-25T15:46:37.200Z,30.50
2018-03-25T15:49:05.576Z,32.30
2018-03-25T15:51:34.604Z,31.33
2018-03-25T15:54:03.705Z,32.60
2018-03-25T15:56:32.786Z,32.43
2018-03-25T15:59:01.127Z,32.60
2018-03-25T16:01:29.445Z,34.93
2018-03-25T16:03:57.780Z,33.57
2018-03-25T16:06:26.258Z,30.00
2018-03-25T16:08:54.630Z,32.17
2018-03-25T16:11:22.963Z,32.37
2018-03-25T16:13:52.122Z,34.40
2018-03-25T16:16:20.446Z,32.67
2018-03-25T16:18:49.547Z,33.93
2018-03-25T16:21:18.953Z,30.10
2018-03-25T16:23:47.341Z,43.20
2018-03-25T16:26:15.673Z,34.70
2018-03-25T16:28:44.012Z,33.10
2018-03-25T16:31:12.368Z,35.10
2018-03-25T16:33:41.470Z,39.87
2018-03-25T16:36:09.828Z,35.53
2018-03-25T16:38:38.916Z,35.20
2018-03-25T16:41:07.244Z,31.27
2018-03-25T16:43:35.564Z,31.13
2018-03-25T16:46:03.908Z,33.17
2018-03-25T16:48:32.227Z,33.80
2018-03-25T16:51:00.576Z,33.70
2018-03-25T16:53:28.901Z,34.03
2018-03-25T16:55:57.995Z,30.60
2018-03-25T16:58:27.075Z,31.40
2018-03-25T17:00:55.410Z,32.20
2018-03-25T17:03:23.744Z,31.70
2018-03-25T17:05:52.868Z,33.47
2018-03-25T17:08:21.191Z,29.20
2018-03-25T17:10:49.624Z,30.20
2018-03-25T17:13:17.980Z,31.30
2018-03-25T17:15:46.296Z,32.07
2018-03-25T17:18:14.617Z,32.80
2018-03-25T17:20:42.963Z,29.67
2018-03-25T17:23:11.311Z,32.40
2018-03-25T17:25:39.700Z,33.67
2018-03-25T17:28:08.108Z,46.40
2018-03-25T17:30:36.448Z,44.00
2018-03-25T17:33:19.024Z,73.77
2018-03-25T17:35:53.347Z,60.47
2018-03-25T17:38:22.455Z,44.07
2018-03-25T17:40:51.556Z,49.23
2018-03-25T17:43:20.661Z,38.83
2018-03-25T17:45:49.021Z,37.53
2018-03-25T17:48:18.134Z,33.80
2018-03-25T17:50:46.455Z,39.47
2018-03-25T17:53:14.798Z,34.47
2018-03-25T17:55:43.330Z,37.73
2018-03-25T17:58:12.397Z,35.17
2018-03-25T18:00:40.772Z,29.93
2018-03-25T18:03:10.020Z,43.23
2018-03-25T18:05:38.416Z,107.40
2018-03-25T18:08:06.800Z,57.93
2018-03-25T18:10:35.931Z,67.43
2018-03-25T18:13:05.267Z,76.63
2018-03-25T18:15:33.610Z,70.03
2018-03-25T18:18:01.932Z,46.13
2018-03-25T18:20:30.268Z,69.80
2018-03-25T18:22:58.583Z,54.53
2018-03-25T18:25:26.918Z,45.60
2018-03-25T18:27:55.232Z,50.10
2018-03-25T18:30:23.618Z,48.90
2018-03-25T18:32:51.898Z,45.47
2018-03-25T18:35:20.239Z,52.23
2018-03-25T18:37:48.552Z,43.20
2018-03-25T18:40:16.900Z,41.03
2018-03-25T18:42:45.221Z,36.03
2018-03-25T18:45:14.327Z,35.83
2018-03-25T18:47:42.672Z,38.27
2018-03-25T18:50:11.004Z,31.83
2018-03-25T18:52:39.326Z,34.77
2018-03-25T18:55:07.661Z,39.60
2018-03-25T18:57:35.975Z,32.03
2018-03-25T19:00:04.317Z,38.90
2018-03-25T19:02:32.636Z,45.10
2018-03-25T19:05:00.968Z,37.13
2018-03-25T19:07:29.287Z,43.80
2018-03-25T19:09:57.642Z,38.90
2018-03-25T19:12:25.968Z,34.20
2018-03-25T19:14:54.304Z,35.43
2018-03-25T19:17:22.612Z,36.40
2018-03-25T19:19:50.955Z,35.03
2018-03-25T19:22:19.263Z,33.80
2018-03-25T19:24:47.610Z,42.20
2018-03-25T19:27:15.915Z,37.50
2018-03-25T19:29:44.258Z,34.50
2018-03-25T19:32:12.591Z,36.07
2018-03-25T19:34:40.970Z,42.47
2018-03-25T19:37:09.277Z,32.53
2018-03-25T19:39:37.640Z,35.73
2018-03-25T19:42:06.719Z,33.13
2018-03-25T19:44:35.054Z,33.13
2018-03-25T19:47:03.413Z,35.13
2018-03-25T19:49:31.744Z,34.97
2018-03-25T19:52:00.049Z,34.80
2018-03-25T19:54:29.144Z,39.33
2018-03-25T19:56:58.215Z,39.17
2018-03-25T19:59:26.572Z,39.27
2018-03-25T20:01:54.885Z,43.33
2018-03-25T20:04:23.992Z,46.00
2018-03-25T20:06:52.292Z,39.53
2018-03-25T20:09:20.639Z,41.00
2018-03-25T20:11:49.708Z,49.60
2018-03-25T20:14:18.041Z,44.90
2018-03-25T20:16:46.348Z,49.10
2018-03-25T20:19:14.683Z,56.93
2018-03-25T20:21:43.019Z,57.80
2018-03-25T20:24:11.331Z,55.47
2018-03-25T20:26:39.695Z,52.40
2018-03-25T20:29:08.012Z,54.00
2018-03-25T20:31:36.348Z,42.03
2018-03-25T20:34:04.660Z,47.40
2018-03-25T20:36:33.001Z,53.10
2018-03-25T20:39:01.320Z,51.60
2018-03-25T20:41:29.684Z,50.83
2018-03-25T20:43:58.008Z,52.33
2018-03-25T20:46:26.352Z,49.30
2018-03-25T20:48:54.672Z,43.90
2018-03-25T20:51:22.994Z,43.13
2018-03-25T20:53:51.327Z,47.53
2018-03-25T20:56:19.659Z,46.33
2018-03-25T20:58:47.963Z,45.43
2018-03-25T21:01:16.296Z,46.47
2018-03-25T21:03:45.380Z,49.00
2018-03-25T21:06:14.631Z,52.17
2018-03-25T21:08:42.951Z,53.37
2018-03-25T21:11:11.280Z,54.50
2018-03-25T21:13:39.590Z,54.67
2018-03-25T21:16:07.925Z,56.13
2018-03-25T21:18:36.258Z,60.87
2018-03-25T21:21:05.379Z,57.23
2018-03-25T21:23:34.455Z,67.83
2018-03-25T21:26:02.792Z,76.53
2018-03-25T21:28:31.105Z,65.50
2018-03-25T21:30:59.433Z,64.57
2018-03-25T21:33:27.742Z,62.30
2018-03-25T21:35:56.139Z,54.87
2018-03-25T21:38:24.447Z,65.87
2018-03-25T21:40:52.822Z,59.67
2018-03-25T21:43:21.936Z,57.40
2018-03-25T21:45:50.315Z,60.13
2018-03-25T21:48:18.632Z,50.10
2018-03-25T21:50:46.972Z,47.73
2018-03-25T21:53:15.281Z,46.43
2018-03-25T21:55:43.608Z,48.77
2018-03-25T21:58:12.699Z,50.13
2018-03-25T22:00:41.832Z,50.87
2018-03-25T22:03:10.172Z,51.43
2018-03-25T22:05:39.263Z,47.63
2018-03-25T22:08:07.596Z,45.07
2018-03-25T22:10:37.431Z,55.77
2018-03-25T22:13:05.772Z,45.27
2018-03-25T22:15:34.083Z,45.80
2018-03-25T22:18:02.426Z,44.77
2018-03-25T22:20:30.741Z,41.43
2018-03-25T22:22:59.071Z,42.70
2018-03-25T22:25:27.408Z,43.30
2018-03-25T22:27:55.757Z,40.43
2018-03-25T22:30:24.063Z,41.33
2018-03-25T22:32:52.396Z,48.00
2018-03-25T22:35:20.706Z,40.00
2018-03-25T22:37:49.036Z,41.17
2018-03-25T22:40:17.349Z,39.07
2018-03-25T22:42:45.687Z,38.20
2018-03-25T22:45:14.004Z,39.20
2018-03-25T22:47:42.307Z,36.73
